YM Moderation — H9EW — position and weather

sailwx.info

Track history (hours):
 
Tides and Currents Weather Stations Pressure Air Temp Water Temp Dewpoint Dewpoint Depression Visibility Wind Speed Wind Dir Waves Ship Positions

YM Moderation

Last reported at 2017-Nov-12 02:19 UTC. Time now 2017-Nov-19 18:24 UTC.
Position N 35°59' W 009°48'.

Length 293 m; draft 12.1 m.

Type: Cargo ship. MMSI: 371633000.

Date/timePositionNaut miles runAvg speedWind from/ knotsBaromVisibWave heightAir tempDewpointWater temp
2017-Nov-12 02:19N 35°59' W 009°48'620.4
2017-Nov-12 02:00N 35°59' W 009°40'1020.1
2017-Nov-12 01:30N 35°59' W 009°28'1020.0
2017-Nov-12 01:00N 35°59' W 009°15'1020.0
2017-Nov-12 00:30N 35°59' W 009°03'1320.1
2017-Nov-11 23:51N 35°59' W 008°47'720.1
2017-Nov-11 23:30N 35°59' W 008°38'1020.3
2017-Nov-11 23:00N 35°59' W 008°26'4120.2
2017-Nov-11 20:59N 35°58' W 007°35'9720.2
2017-Nov-11 16:11N 35°58' W 005°35'318.4
2017-Nov-11 16:01N 35°59' W 005°31'917.4
2017-Nov-11 15:30N 36°01' W 005°21'917.5
2017-Nov-11 15:01N 36°04' W 005°11'91919.5
2017-Nov-09 15:52N 36°34' E 013°49'819.7
2017-Nov-09 15:28N 36°31' E 013°58'919.6
2017-Nov-09 15:00N 36°28' E 014°09'1019.5
2017-Nov-09 14:30N 36°25' E 014°20'1019.4
2017-Nov-09 14:00N 36°22' E 014°31'1019.6
2017-Nov-09 13:30N 36°19' E 014°43'1019.8
2017-Nov-09 13:00N 36°16' E 014°55'  
Track history (hours):
 
Tides and Currents Weather Stations Pressure Air Temp Water Temp Dewpoint Dewpoint Depression Visibility Wind Speed Wind Dir Waves Ship Positions

YM Moderation

Last reported at 2017-Nov-12 02:19 UTC. Time now 2017-Nov-19 18:24 UTC.
Position N 35°59' W 009°48'.

Length 293 m; draft 12.1 m.

Type: Cargo ship. MMSI: 371633000.

Date/timePositionNaut miles runAvg speedWind from/ knotsBaromVisibWave heightAir tempDewpointWater temp
2017-Nov-12 02:19N 35°59' W 009°48'620.4
2017-Nov-12 02:00N 35°59' W 009°40'1020.1
2017-Nov-12 01:30N 35°59' W 009°28'1020.0
2017-Nov-12 01:00N 35°59' W 009°15'1020.0
2017-Nov-12 00:30N 35°59' W 009°03'1320.1
2017-Nov-11 23:51N 35°59' W 008°47'720.1
2017-Nov-11 23:30N 35°59' W 008°38'1020.3
2017-Nov-11 23:00N 35°59' W 008°26'4120.2
2017-Nov-11 20:59N 35°58' W 007°35'9720.2
2017-Nov-11 16:11N 35°58' W 005°35'318.4
2017-Nov-11 16:01N 35°59' W 005°31'917.4
2017-Nov-11 15:30N 36°01' W 005°21'917.5
2017-Nov-11 15:01N 36°04' W 005°11'91919.5
2017-Nov-09 15:52N 36°34' E 013°49'819.7
2017-Nov-09 15:28N 36°31' E 013°58'919.6
2017-Nov-09 15:00N 36°28' E 014°09'1019.5
2017-Nov-09 14:30N 36°25' E 014°20'1019.4
2017-Nov-09 14:00N 36°22' E 014°31'1019.6
2017-Nov-09 13:30N 36°19' E 014°43'1019.8
2017-Nov-09 13:00N 36°16' E 014°55'  

Dump ship's entire track history